Frem Nordica — OVIL2 — position and weather

sailwx.info

Track history (hours):
 
Tides and Currents Weather Stations Pressure Air Temp Water Temp Dewpoint Dewpoint Depression Visibility Wind Speed Wind Dir Waves Ship Positions

Frem Nordica

Last reported at 2015-May-30 21:04 UTC. Time now 2015-May-30 22:33 UTC.
Position N 58°33' E 005°31'.

Length 79 m; draft 2.7 m.

MMSI: 220439000.

Date/timePositionNaut miles runAvg speedWind from/ knotsBaromVisibWave heightAir tempDewpointWater temp
2015-May-30 21:04N 58°33' E 005°31'4 7.5
2015-May-30 20:31N 58°29' E 005°35'8 8.3
2015-May-30 19:33N 58°22' E 005°41'183 7.5
2015-May-29 19:10N 55°28' E 007°25'5 8.7
2015-May-29 18:32N 55°22' E 007°25'8 8.6
2015-May-29 17:33N 55°14' E 007°25'8 8.4
2015-May-29 16:33N 55°06' E 007°25'9 8.5
2015-May-29 15:33N 54°57' E 007°27'12 8.5
2015-May-29 14:10N 54°45' E 007°27'6 8.7
2015-May-29 13:30N 54°39' E 007°27'8 8.8
2015-May-29 12:33N 54°31' E 007°27'9 8.9
2015-May-29 11:33N 54°22' E 007°27'9 8.7
2015-May-29 10:33N 54°16' E 007°37'9 8.6
2015-May-29 09:33N 54°10' E 007°48'8 8.3
2015-May-29 08:33N 54°05' E 007°59'7 7.3
2015-May-29 07:33N 54°01' E 008°10'8 7.2
2015-May-29 06:25N 53°60' E 008°23'6 6.8
2015-May-29 05:33N 53°58' E 008°33'7 7.3
2015-May-29 04:33N 53°53' E 008°42'10 9.6
2015-May-29 03:33N 53°51' E 008°58'1110.9
2015-May-29 02:34N 53°52' E 009°17'1111.2
2015-May-29 01:33N 53°43' E 009°28'1110.7
2015-May-29 00:33N 53°34' E 009°39'6 5.8
2015-May-28 23:33N 53°32' E 009°47'0 0.0
2015-May-28 22:31N 53°32' E 009°47'1 1.5
2015-May-28 21:33N 53°33' E 009°47'7 6.9
2015-May-28 20:33N 53°35' E 009°36'7 6.8
2015-May-28 19:33N 53°41' E 009°30'7 7.1
2015-May-28 18:33N 53°47' E 009°23'7 7.2
2015-May-28 17:33N 53°52' E 009°15'4 3.5
2015-May-28 16:33N 53°54' E 009°09'8 8.0
2015-May-28 15:33N 54°00' E 009°18'22 7.5
2015-May-28 12:33N 54°18' E 009°42'7 7.5
2015-May-28 11:33N 54°21' E 009°53'5 5.3
2015-May-28 10:34N 54°22' E 010°02'4 4.0
2015-May-28 09:33N 54°22' E 010°08'1 1.2
2015-May-28 08:33N 54°22' E 010°10'4 4.1
2015-May-28 07:33N 54°26' E 010°13'8 7.9
2015-May-28 06:33N 54°31' E 010°23'8 8.0
2015-May-28 05:30N 54°35' E 010°36'8 7.9
2015-May-28 04:32N 54°40' E 010°47'  
2015-May-21 21:17N 56°11' E 012°15'5 6.5
2015-May-21 20:33N 56°09' E 012°23'9 8.6
2015-May-21 19:33N 56°05' E 012°36'9 8.7
2015-May-21 18:33N 55°57' E 012°43'9 8.6
2015-May-21 17:33N 55°49' E 012°46'9 8.7
2015-May-21 16:33N 55°42' E 012°55'8 7.7
2015-May-21 15:33N 55°34' E 012°50'8 8.4
2015-May-21 14:33N 55°27' E 012°43'8 8.1
2015-May-21 13:33N 55°20' E 012°34'9 8.5
2015-May-21 12:33N 55°14' E 012°25'6 0.7
2015-May-21 04:13N 55°12' E 012°14'6 8.8
2015-May-21 03:33N 55°14' E 012°24'9 8.6
2015-May-21 02:33N 55°21' E 012°33'9 8.8
2015-May-21 01:33N 55°29' E 012°39'8 8.0
2015-May-21 00:33N 55°37' E 012°42'8 7.7
2015-May-20 23:33N 55°45' E 012°41'8 8.2
2015-May-20 22:33N 55°53' E 012°39'8 8.0
2015-May-20 21:33N 56°01' E 012°38'  
Track history (hours):
 
Tides and Currents Weather Stations Pressure Air Temp Water Temp Dewpoint Dewpoint Depression Visibility Wind Speed Wind Dir Waves Ship Positions

Frem Nordica

Last reported at 2015-May-30 21:04 UTC. Time now 2015-May-30 22:33 UTC.
Position N 58°33' E 005°31'.

Length 79 m; draft 2.7 m.

MMSI: 220439000.

Date/timePositionNaut miles runAvg speedWind from/ knotsBaromVisibWave heightAir tempDewpointWater temp
2015-May-30 21:04N 58°33' E 005°31'4 7.5
2015-May-30 20:31N 58°29' E 005°35'8 8.3
2015-May-30 19:33N 58°22' E 005°41'183 7.5
2015-May-29 19:10N 55°28' E 007°25'5 8.7
2015-May-29 18:32N 55°22' E 007°25'8 8.6
2015-May-29 17:33N 55°14' E 007°25'8 8.4
2015-May-29 16:33N 55°06' E 007°25'9 8.5
2015-May-29 15:33N 54°57' E 007°27'12 8.5
2015-May-29 14:10N 54°45' E 007°27'6 8.7
2015-May-29 13:30N 54°39' E 007°27'8 8.8
2015-May-29 12:33N 54°31' E 007°27'9 8.9
2015-May-29 11:33N 54°22' E 007°27'9 8.7
2015-May-29 10:33N 54°16' E 007°37'9 8.6
2015-May-29 09:33N 54°10' E 007°48'8 8.3
2015-May-29 08:33N 54°05' E 007°59'7 7.3
2015-May-29 07:33N 54°01' E 008°10'8 7.2
2015-May-29 06:25N 53°60' E 008°23'6 6.8
2015-May-29 05:33N 53°58' E 008°33'7 7.3
2015-May-29 04:33N 53°53' E 008°42'10 9.6
2015-May-29 03:33N 53°51' E 008°58'1110.9
2015-May-29 02:34N 53°52' E 009°17'1111.2
2015-May-29 01:33N 53°43' E 009°28'1110.7
2015-May-29 00:33N 53°34' E 009°39'6 5.8
2015-May-28 23:33N 53°32' E 009°47'0 0.0
2015-May-28 22:31N 53°32' E 009°47'1 1.5
2015-May-28 21:33N 53°33' E 009°47'7 6.9
2015-May-28 20:33N 53°35' E 009°36'7 6.8
2015-May-28 19:33N 53°41' E 009°30'7 7.1
2015-May-28 18:33N 53°47' E 009°23'7 7.2
2015-May-28 17:33N 53°52' E 009°15'4 3.5
2015-May-28 16:33N 53°54' E 009°09'8 8.0
2015-May-28 15:33N 54°00' E 009°18'22 7.5
2015-May-28 12:33N 54°18' E 009°42'7 7.5
2015-May-28 11:33N 54°21' E 009°53'5 5.3
2015-May-28 10:34N 54°22' E 010°02'4 4.0
2015-May-28 09:33N 54°22' E 010°08'1 1.2
2015-May-28 08:33N 54°22' E 010°10'4 4.1
2015-May-28 07:33N 54°26' E 010°13'8 7.9
2015-May-28 06:33N 54°31' E 010°23'8 8.0
2015-May-28 05:30N 54°35' E 010°36'8 7.9
2015-May-28 04:32N 54°40' E 010°47'  
2015-May-21 21:17N 56°11' E 012°15'5 6.5
2015-May-21 20:33N 56°09' E 012°23'9 8.6
2015-May-21 19:33N 56°05' E 012°36'9 8.7
2015-May-21 18:33N 55°57' E 012°43'9 8.6
2015-May-21 17:33N 55°49' E 012°46'9 8.7
2015-May-21 16:33N 55°42' E 012°55'8 7.7
2015-May-21 15:33N 55°34' E 012°50'8 8.4
2015-May-21 14:33N 55°27' E 012°43'8 8.1
2015-May-21 13:33N 55°20' E 012°34'9 8.5
2015-May-21 12:33N 55°14' E 012°25'6 0.7
2015-May-21 04:13N 55°12' E 012°14'6 8.8
2015-May-21 03:33N 55°14' E 012°24'9 8.6
2015-May-21 02:33N 55°21' E 012°33'9 8.8
2015-May-21 01:33N 55°29' E 012°39'8 8.0
2015-May-21 00:33N 55°37' E 012°42'8 7.7
2015-May-20 23:33N 55°45' E 012°41'8 8.2
2015-May-20 22:33N 55°53' E 012°39'8 8.0
2015-May-20 21:33N 56°01' E 012°38'  

Dump ship's entire track history